Terminal Aerodrome Forecast
Issued by NWS

Home | Current Version | Previous Version | Text Only | Print | Product List | Glossary On
Versions: 1 2 3 4 5 6 7 8 9 10 11 12
000
FTUS43 KMQT 012320
TAFIWD
TAF
KIWD 012320Z 0200/0224 00000KT P6SM SCT130
     FM020900 00000KT 5SM BR SCT070
     FM021300 00000KT P6SM VCSH BKN070
     FM021900 17006KT P6SM VCSH BKN120
     FM022300 17006KT P6SM SCT120
      AMD LTD TO CLD VIS AND WIND=

USA.gov is the U.S. government's official web portal to all federal, state and local government web resources and services.